Time;durP1;ratioP1;P1;durP2;ratioP2;P2;SDS_P1;SDS_P2;PMS_P1;PMS_P2;Temp;Humidity;BMP_temperature;BMP_pressure;BME280_temperature;BME280_humidity;BME280_pressure;Samples;Min_cycle;Max_cycle;Signal;HPM_P1;HPM_P2
2021/11/15 00:00:25;;;;;;;48.67;25.93;;;;;;;7.83;75.90;101629.24;126338;1099;101591;-81
2021/11/15 00:03:18;;;;;;;50.43;27.30;;;;;;;7.87;75.55;101636.48;126298;1098;104163;-81
2021/11/15 00:05:51;;;;;;;52.67;25.52;;;;;;;7.94;75.76;101640.39;126281;1098;103983;-81
2021/11/15 00:08:23;;;;;;;50.40;26.73;;;;;;;7.95;76.05;101632.66;126316;1099;103986;-81
2021/11/15 00:10:54;;;;;;;48.13;25.70;;;;;;;7.95;75.42;101636.95;126338;1099;103967;-81
2021/11/15 00:13:26;;;;;;;50.70;26.27;;;;;;;7.97;76.00;101636.25;126363;1099;104031;-81
2021/11/15 00:15:58;;;;;;;52.10;25.80;;;;;;;8.01;75.58;101638.27;126362;1099;103925;-82
2021/11/15 00:18:30;;;;;;;47.63;25.13;;;;;;;8.07;76.13;101635.12;126264;1099;104088;-83
2021/11/15 00:21:01;;;;;;;50.73;25.83;;;;;;;8.14;76.33;101639.95;126357;1099;104044;-83
2021/11/15 00:23:33;;;;;;;45.83;23.90;;;;;;;8.21;76.41;101643.85;126223;1099;103916;-81
2021/11/15 00:26:05;;;;;;;48.33;25.10;;;;;;;8.27;76.04;101650.40;126366;1099;104455;-81
2021/11/15 00:28:36;;;;;;;48.57;25.27;;;;;;;8.28;76.20;101653.91;126289;1099;104140;-82
2021/11/15 00:31:09;;;;;;;47.97;27.00;;;;;;;8.30;76.39;101647.05;126257;1099;104704;-82
2021/11/15 00:33:40;;;;;;;53.33;26.23;;;;;;;8.34;76.36;101642.94;126332;1099;103913;-82
2021/11/15 00:36:12;;;;;;;47.00;24.97;;;;;;;8.32;75.65;101641.92;126342;1099;104382;-82
2021/11/15 00:38:43;;;;;;;51.03;26.97;;;;;;;8.32;76.30;101640.23;126308;1099;103912;-81
2021/11/15 00:41:16;;;;;;;49.07;26.13;;;;;;;8.30;76.11;101636.59;126346;1099;103925;-82
2021/11/15 00:43:47;;;;;;;52.23;27.60;;;;;;;8.28;75.97;101643.45;126321;1099;103932;-82
2021/11/15 00:46:21;;;;;;;49.30;26.57;;;;;;;8.28;76.09;101639.11;126325;1099;103768;-81
2021/11/15 00:48:55;;;;;;;53.37;26.87;;;;;;;8.33;76.01;101641.13;126320;1099;103977;-81
2021/11/15 00:51:28;;;;;;;48.47;25.00;;;;;;;8.36;76.42;101642.20;126358;1099;103935;-82
2021/11/15 00:54:01;;;;;;;52.98;27.45;;;;;;;8.42;76.57;101641.70;126316;1099;104041;-82
2021/11/15 00:56:32;;;;;;;53.60;28.50;;;;;;;8.44;76.42;101641.00;126304;1099;104034;-81
2021/11/15 00:59:04;;;;;;;52.60;27.33;;;;;;;8.44;76.36;101653.19;126298;1099;105403;-82
2021/11/15 01:01:36;;;;;;;52.33;25.73;;;;;;;8.41;75.70;101645.11;126307;1098;103948;-81
2021/11/15 01:04:08;;;;;;;48.20;25.53;;;;;;;8.35;76.28;101649.95;126324;1099;104104;-82
2021/11/15 01:06:40;;;;;;;48.00;25.60;;;;;;;8.30;76.33;101651.39;126298;1098;102661;-81
2021/11/15 01:09:11;;;;;;;49.27;25.97;;;;;;;8.26;76.39;101642.45;126255;1098;103922;-82
2021/11/15 01:11:45;;;;;;;47.13;25.90;;;;;;;8.23;76.12;101650.11;126317;1099;104095;-82
2021/11/15 01:14:17;;;;;;;48.17;25.53;;;;;;;8.26;75.93;101648.58;126329;1099;103915;-81
2021/11/15 01:16:49;;;;;;;51.97;26.13;;;;;;;8.29;75.81;101647.88;126302;1099;103922;-81
2021/11/15 01:19:21;;;;;;;50.83;26.10;;;;;;;8.33;76.07;101651.58;126254;1099;103954;-82
2021/11/15 01:21:52;;;;;;;50.10;26.33;;;;;;;8.40;76.56;101653.79;126297;1099;104048;-82
2021/11/15 01:24:24;;;;;;;48.07;25.60;;;;;;;8.37;75.76;101653.59;126279;1099;103970;-82
2021/11/15 01:26:55;;;;;;;47.47;26.93;;;;;;;8.30;76.43;101649.66;126329;1099;104101;-82
2021/11/15 01:29:27;;;;;;;47.03;25.63;;;;;;;8.23;76.41;101661.45;126357;1099;104829;-81
2021/11/15 01:32:00;;;;;;;49.43;25.47;;;;;;;8.18;75.82;101656.73;126333;1099;103938;-82
2021/11/15 01:34:32;;;;;;;47.80;25.77;;;;;;;8.16;76.41;101658.35;126347;1099;103973;-82
2021/11/15 01:37:03;;;;;;;48.60;25.73;;;;;;;8.13;76.03;101653.82;126282;1099;104060;-82
2021/11/15 01:39:36;;;;;;;49.37;25.90;;;;;;;8.10;75.89;101654.55;126295;1099;103957;-82
2021/11/15 01:42:07;;;;;;;50.23;24.93;;;;;;;8.08;76.53;101650.02;126373;1099;103932;-82
2021/11/15 01:44:40;;;;;;;46.07;24.40;;;;;;;8.05;76.39;101649.82;126287;1099;104057;-82
2021/11/15 01:47:12;;;;;;;49.95;26.00;;;;;;;7.99;75.85;101652.93;126292;1099;104070;-82
2021/11/15 01:49:44;;;;;;;54.93;27.30;;;;;;;7.97;75.90;101659.78;126297;1099;103932;-80
2021/11/15 01:52:16;;;;;;;47.10;25.27;;;;;;;7.96;76.16;101660.58;126353;1099;103977;-82
2021/11/15 01:54:48;;;;;;;49.50;25.47;;;;;;;7.95;76.61;101663.09;126275;1099;103967;-81
2021/11/15 01:57:20;;;;;;;47.33;25.10;;;;;;;7.94;76.60;101661.30;126379;1099;104136;-81
2021/11/15 01:59:51;;;;;;;46.67;23.30;;;;;;;7.91;76.16;101659.38;126272;1099;104008;-81
2021/11/15 02:02:26;;;;;;;47.73;26.03;;;;;;;7.88;76.16;101657.50;126355;1099;103993;-81
2021/11/15 02:04:58;;;;;;;49.60;25.27;;;;;;;7.87;76.25;101665.23;126367;1099;103919;-83
2021/11/15 02:07:30;;;;;;;48.87;25.83;;;;;;;7.84;75.99;101663.31;126287;1099;103919;-82
2021/11/15 02:10:02;;;;;;;50.53;26.63;;;;;;;7.82;76.01;101664.94;126349;1096;103915;-82
2021/11/15 02:12:33;;;;;;;50.30;25.17;;;;;;;7.79;76.66;101666.42;126281;1099;101662;-82
2021/11/15 02:15:10;;;;;;;48.80;25.77;;;;;;;7.78;76.04;101672.47;126357;1099;103941;-82
2021/11/15 02:17:44;;;;;;;49.37;26.33;;;;;;;7.75;76.32;101670.55;126297;1099;103919;-82
2021/11/15 02:20:17;;;;;;;45.58;24.70;;;;;;;7.74;76.50;101676.56;126295;1099;103974;-81
2021/11/15 02:22:50;;;;;;;49.90;26.70;;;;;;;7.71;76.49;101668.53;126407;1099;103941;-83
2021/11/15 02:25:24;;;;;;;46.30;24.20;;;;;;;7.69;76.26;101675.37;126281;1098;103907;-81
2021/11/15 02:27:56;;;;;;;48.07;24.97;;;;;;;7.65;76.08;101671.66;126315;1099;103951;-82
2021/11/15 02:30:29;;;;;;;52.23;25.73;;;;;;;7.65;76.24;101678.57;126240;1099;103967;-82
2021/11/15 02:33:02;;;;;;;51.55;27.02;;;;;;;7.65;76.72;101682.11;126320;1099;103922;-82
2021/11/15 02:35:34;;;;;;;48.97;25.53;;;;;;;7.67;76.19;101685.72;126370;1099;103918;-81
2021/11/15 02:38:07;;;;;;;48.83;25.73;;;;;;;7.65;76.15;101674.27;126324;1099;104098;-82
2021/11/15 02:40:39;;;;;;;50.57;25.37;;;;;;;7.63;76.17;101677.58;126316;1099;103925;-82
2021/11/15 02:43:11;;;;;;;52.03;26.07;;;;;;;7.62;76.32;101684.52;126363;1099;104397;-82
2021/11/15 02:45:43;;;;;;;52.45;25.60;;;;;;;7.62;76.27;101688.81;126367;1099;104022;-82
2021/11/15 02:48:18;;;;;;;49.77;26.47;;;;;;;7.60;76.80;101693.05;126290;1099;104043;-81
2021/11/15 02:50:50;;;;;;;49.35;24.70;;;;;;;7.58;76.60;101694.66;126293;1099;103944;-83
2021/11/15 02:53:22;;;;;;;47.93;26.20;;;;;;;7.58;76.84;101687.72;126345;1099;103916;-82
2021/11/15 02:55:55;;;;;;;49.03;25.23;;;;;;;7.58;76.32;101692.94;126322;1099;103925;-82
2021/11/15 02:58:27;;;;;;;48.87;25.73;;;;;;;7.60;76.71;101688.71;126388;1099;104461;-82
2021/11/15 03:01:01;;;;;;;50.63;25.53;;;;;;;7.62;76.71;101688.81;126300;1099;104086;-81
2021/11/15 03:03:33;;;;;;;46.93;25.83;;;;;;;7.63;76.58;101694.14;125293;1099;104028;-82
2021/11/15 03:06:05;;;;;;;53.50;27.67;;;;;;;7.66;76.49;101694.34;125240;1099;103961;-81
2021/11/15 03:08:37;;;;;;;47.60;25.40;;;;;;;7.67;76.47;101698.78;125210;1100;104034;-81
2021/11/15 03:11:09;;;;;;;51.27;26.57;;;;;;;7.68;76.53;101700.60;125232;1102;104044;-82
2021/11/15 03:13:43;;;;;;;49.20;25.37;;;;;;;7.71;77.18;101699.88;125315;1099;103970;-81
2021/11/15 03:16:15;;;;;;;45.70;25.03;;;;;;;7.72;76.83;101697.37;125273;1099;103922;-81
2021/11/15 03:18:47;;;;;;;49.70;25.57;;;;;;;7.74;76.51;101710.53;125281;1099;103978;-82
2021/11/15 03:21:21;;;;;;;47.47;24.87;;;;;;;7.76;77.03;101713.25;125244;1099;103920;-82
2021/11/15 03:23:56;;;;;;;46.28;26.00;;;;;;;7.75;77.03;101714.97;125257;1099;101578;-82
2021/11/15 03:26:28;;;;;;;50.17;25.90;;;;;;;7.72;76.75;101715.66;125332;1102;104266;-81
2021/11/15 03:29:00;;;;;;;49.77;25.73;;;;;;;7.73;76.97;101725.31;125271;1099;104316;-81
2021/11/15 03:31:35;;;;;;;49.80;27.97;;;;;;;7.73;76.62;101725.31;125304;1102;104390;-82
2021/11/15 03:34:09;;;;;;;49.30;25.97;;;;;;;7.68;77.04;101721.50;125295;1099;103926;-82
2021/11/15 03:36:44;;;;;;;46.47;25.57;;;;;;;7.66;76.53;101715.25;125270;1099;103990;-82
2021/11/15 03:39:16;;;;;;;49.80;26.07;;;;;;;7.65;76.73;101720.37;125313;1099;103923;-82
2021/11/15 03:41:48;;;;;;;52.90;27.37;;;;;;;7.62;76.77;101720.16;125536;1099;103983;-81
2021/11/15 03:44:20;;;;;;;50.80;27.30;;;;;;;7.60;77.26;101719.17;126321;1099;103925;-80
2021/11/15 03:46:52;;;;;;;54.07;27.37;;;;;;;7.56;76.75;101716.34;126318;1099;103916;-82
2021/11/15 03:49:23;;;;;;;48.43;24.70;;;;;;;7.59;76.73;101725.18;126345;1099;104018;-82
2021/11/15 03:51:55;;;;;;;47.57;26.27;;;;;;;7.58;76.88;101724.28;126283;1099;103993;-83
2021/11/15 03:54:26;;;;;;;49.17;25.93;;;;;;;7.58;76.64;101720.78;126324;1098;103913;-82
2021/11/15 03:56:58;;;;;;;49.33;26.07;;;;;;;7.57;76.82;101727.69;126347;1098;104002;-82
2021/11/15 03:59:30;;;;;;;50.30;24.00;;;;;;;7.58;77.34;101726.90;126350;1099;104009;-82
2021/11/15 04:02:01;;;;;;;45.67;25.03;;;;;;;7.58;77.27;101720.78;126304;1096;103919;-82
2021/11/15 04:04:49;;;;;;;53.20;27.33;;;;;;;7.60;77.19;101724.39;126377;1099;104087;-82
2021/11/15 04:07:28;;;;;;;50.17;26.03;;;;;;;7.61;77.15;101727.11;126306;1099;103925;-82
2021/11/15 04:10:08;;;;;;;48.27;25.90;;;;;;;7.64;76.75;101729.03;126349;1098;104257;-82
2021/11/15 04:12:40;;;;;;;48.83;25.57;;;;;;;7.65;76.95;101730.81;126276;1099;103954;-81
2021/11/15 04:15:14;;;;;;;50.57;26.67;;;;;;;7.65;76.95;101730.81;126376;1098;104101;-81
2021/11/15 04:17:47;;;;;;;48.42;24.63;;;;;;;7.61;76.67;101732.33;126359;1099;104015;-82
2021/11/15 04:20:21;;;;;;;54.15;26.85;;;;;;;7.60;76.90;101734.84;126323;1099;104454;-81
2021/11/15 04:22:53;;;;;;;55.35;28.90;;;;;;;7.54;77.26;101738.86;126298;1099;103970;-82
2021/11/15 04:25:24;;;;;;;53.43;27.27;;;;;;;7.52;77.34;101740.44;126286;1099;103913;-82
2021/11/15 04:27:56;;;;;;;51.23;27.07;;;;;;;7.50;77.02;101741.16;126331;1099;103963;-82
2021/11/15 04:30:36;;;;;;;51.63;27.33;;;;;;;7.49;76.86;101740.23;126249;1098;104048;-82
2021/11/15 04:33:23;;;;;;;52.80;28.10;;;;;;;7.45;76.85;101748.67;126102;1099;103922;-82
2021/11/15 04:35:55;;;;;;;52.83;26.67;;;;;;;7.41;77.23;101744.03;126382;1099;103928;-82
2021/11/15 04:38:27;;;;;;;52.73;28.13;;;;;;;7.39;77.28;101748.26;126361;1099;103977;-83
2021/11/15 04:40:59;;;;;;;58.07;29.53;;;;;;;7.38;77.39;101752.55;126368;1099;103948;-81
2021/11/15 04:43:31;;;;;;;54.87;27.47;;;;;;;7.36;77.25;101748.05;126267;1098;103970;-82
2021/11/15 04:46:04;;;;;;;55.63;28.07;;;;;;;7.34;77.29;101755.78;126311;1099;104121;-82
2021/11/15 04:48:36;;;;;;;50.20;26.60;;;;;;;7.35;76.90;101756.67;126351;1099;103913;-82
2021/11/15 04:51:08;;;;;;;53.30;26.73;;;;;;;7.36;77.22;101763.72;126286;1097;103916;-82
2021/11/15 04:53:40;;;;;;;52.97;28.23;;;;;;;7.38;76.94;101757.78;126296;1099;103929;-81
2021/11/15 04:56:12;;;;;;;49.90;26.03;;;;;;;7.42;77.54;101763.21;126286;1099;103922;-81
2021/11/15 04:58:44;;;;;;;48.60;26.57;;;;;;;7.43;77.37;101765.92;126277;1099;103971;-82
2021/11/15 05:01:16;;;;;;;51.53;26.93;;;;;;;7.47;77.58;101772.29;126275;1099;103893;-82
2021/11/15 05:03:47;;;;;;;50.93;27.27;;;;;;;7.51;77.49;101787.34;126274;1099;103915;-82
2021/11/15 05:06:19;;;;;;;53.63;28.40;;;;;;;7.53;77.25;101786.66;126296;1099;103945;-82
2021/11/15 05:08:53;;;;;;;49.43;26.70;;;;;;;7.58;77.61;101796.53;126317;1099;103925;-82
2021/11/15 05:11:25;;;;;;;50.17;27.50;;;;;;;7.57;77.46;101800.83;126212;1099;104018;-83
2021/11/15 05:13:57;;;;;;;51.27;27.07;;;;;;;7.58;77.21;101793.92;126112;1099;103941;-82
2021/11/15 05:16:29;;;;;;;50.90;26.73;;;;;;;7.58;77.50;101792.20;126188;1099;104012;-83
2021/11/15 05:19:01;;;;;;;50.77;26.83;;;;;;;7.59;77.74;101799.25;126201;1099;103948;-83
2021/11/15 05:21:33;;;;;;;52.73;26.23;;;;;;;7.60;77.26;101800.15;126245;1098;104121;-83
2021/11/15 05:24:05;;;;;;;51.13;28.07;;;;;;;7.59;77.28;101803.55;126100;1099;104474;-83
2021/11/15 05:26:37;;;;;;;54.00;28.30;;;;;;;7.59;77.53;101812.31;126324;1099;103974;-83
2021/11/15 05:29:11;;;;;;;55.53;27.37;;;;;;;7.63;77.52;101813.42;126174;1099;103944;-83
2021/11/15 05:31:42;;;;;;;51.23;28.27;;;;;;;7.67;77.84;101815.45;125997;1099;102642;-83
2021/11/15 05:34:14;;;;;;;56.40;28.97;;;;;;;7.68;77.39;101822.47;126199;1099;105425;-83
2021/11/15 05:36:46;;;;;;;54.17;27.90;;;;;;;7.67;77.96;101824.19;126258;1099;103948;-84
2021/11/15 05:39:18;;;;;;;53.23;27.40;;;;;;;7.69;78.11;101826.91;126224;1099;103974;-82
2021/11/15 05:41:51;;;;;;;52.93;27.57;;;;;;;7.71;77.93;101833.13;126169;1099;103939;-82
2021/11/15 05:44:24;;;;;;;52.97;26.67;;;;;;;7.71;77.58;101838.36;126164;1099;103983;-81
2021/11/15 05:46:57;;;;;;;51.57;25.57;;;;;;;7.73;78.05;101840.28;126180;1099;103951;-81
2021/11/15 05:49:29;;;;;;;55.77;28.97;;;;;;;7.78;77.64;101840.59;126053;1099;104095;-80
2021/11/15 05:52:00;;;;;;;57.90;28.50;;;;;;;7.86;77.94;101839.41;126122;1099;103913;-80
2021/11/15 05:54:32;;;;;;;53.47;27.97;;;;;;;7.90;77.64;101848.38;126055;1098;103952;-81
2021/11/15 05:57:05;;;;;;;53.97;27.40;;;;;;;7.90;77.68;101856.22;126254;1099;103916;-82
2021/11/15 05:59:38;;;;;;;58.30;27.43;;;;;;;7.91;78.02;101858.91;126181;1098;103912;-81
2021/11/15 06:02:15;;;;;;;54.90;27.73;;;;;;;7.92;77.63;101868.58;126141;1099;103922;-80
2021/11/15 06:04:50;;;;;;;53.30;26.97;;;;;;;7.92;78.12;101867.68;125994;1099;104011;-81
2021/11/15 06:07:25;;;;;;;50.33;26.07;;;;;;;7.95;77.57;101866.95;126177;1099;104381;-80
2021/11/15 06:10:00;;;;;;;51.50;26.63;;;;;;;7.98;78.17;101861.94;126139;1098;103925;-79
2021/11/15 06:12:34;;;;;;;50.30;27.47;;;;;;;7.98;77.60;101862.88;126212;1099;104022;-80
2021/11/15 06:15:12;;;;;;;55.43;27.95;;;;;;;7.99;78.06;101872.50;125664;1099;103917;-81
2021/11/15 06:17:44;;;;;;;53.00;27.37;;;;;;;8.00;77.83;101876.05;126343;1099;104053;-81
2021/11/15 06:20:20;;;;;;;53.47;28.07;;;;;;;8.02;78.14;101874.42;125363;1099;104019;-80
2021/11/15 06:23:08;;;;;;;51.93;27.90;;;;;;;8.07;77.73;101873.95;126185;1099;104038;-81
2021/11/15 06:25:42;;;;;;;51.33;26.87;;;;;;;8.14;78.02;101882.21;126194;1099;105304;-79
2021/11/15 06:28:16;;;;;;;52.60;27.83;;;;;;;8.20;78.05;101891.36;126053;1099;103973;-79
2021/11/15 06:30:50;;;;;;;53.17;28.33;;;;;;;8.25;78.39;101889.95;126164;1099;104355;-79
2021/11/15 06:33:26;;;;;;;53.73;27.80;;;;;;;8.28;78.22;101895.39;126235;1097;103970;-80
2021/11/15 06:35:58;;;;;;;59.03;28.53;;;;;;;8.34;78.39;101899.25;126177;1097;104057;-78
2021/11/15 06:38:30;;;;;;;55.27;28.40;;;;;;;8.41;78.39;101901.45;126091;1099;104066;-80
2021/11/15 06:41:04;;;;;;;57.03;28.53;;;;;;;8.49;78.38;101894.14;125995;1099;103938;-79
2021/11/15 06:43:37;;;;;;;56.27;26.83;;;;;;;8.57;78.06;101888.63;126109;1099;104030;-78
2021/11/15 06:46:15;;;;;;;48.17;25.20;;;;;;;8.61;78.06;101890.63;126092;1099;103938;-79
2021/11/15 06:48:51;;;;;;;55.47;27.83;;;;;;;8.69;78.41;101892.84;126070;1099;103954;-80
2021/11/15 06:51:24;;;;;;;53.30;25.93;;;;;;;8.80;77.68;101897.06;126112;1099;104075;-78
2021/11/15 06:53:58;;;;;;;51.50;26.33;;;;;;;8.88;77.71;101895.88;126041;1099;103980;-79
2021/11/15 06:56:32;;;;;;;49.83;25.57;;;;;;;9.04;77.89;101899.45;125944;1099;103925;-79
2021/11/15 06:59:07;;;;;;;50.03;25.77;;;;;;;9.09;78.19;101908.53;126076;1099;103942;-80
2021/11/15 07:01:44;;;;;;;48.37;24.93;;;;;;;9.17;78.28;101909.92;125967;1099;104024;-80
2021/11/15 07:04:24;;;;;;;50.90;26.27;;;;;;;9.27;77.69;101900.92;125979;1099;104005;-80
2021/11/15 07:07:00;;;;;;;48.07;24.90;;;;;;;9.34;77.89;101904.03;125880;1099;103969;-80
2021/11/15 07:09:35;;;;;;;47.83;25.23;;;;;;;9.35;77.97;101912.81;126029;1099;104092;-79
2021/11/15 07:12:11;;;;;;;50.73;25.63;;;;;;;9.39;77.89;101913.91;125942;1099;103942;-78
2021/11/15 07:14:49;;;;;;;49.17;23.37;;;;;;;9.46;77.49;101916.11;125895;1099;104495;-77
2021/11/15 07:17:23;;;;;;;48.67;25.23;;;;;;;9.51;77.81;101919.91;125835;1099;103941;-77
2021/11/15 07:19:58;;;;;;;54.73;25.00;;;;;;;9.55;77.82;101924.52;125947;1099;104583;-78
2021/11/15 07:22:40;;;;;;;48.73;24.93;;;;;;;9.61;77.70;101918.77;126001;1099;103958;-78
2021/11/15 07:25:12;;;;;;;49.27;24.43;;;;;;;9.65;77.40;101926.91;126019;1099;103922;-78
2021/11/15 07:27:47;;;;;;;50.70;23.97;;;;;;;9.71;77.09;101921.16;126045;1099;103967;-79
2021/11/15 07:30:26;;;;;;;51.63;27.07;;;;;;;9.76;77.68;101924.06;126086;1099;105511;-79
2021/11/15 07:33:00;;;;;;;49.97;25.07;;;;;;;9.83;77.14;101927.16;126012;1099;104060;-79
2021/11/15 07:35:33;;;;;;;47.77;23.43;;;;;;;9.89;77.39;101931.86;126176;1099;104019;-79
2021/11/15 07:38:08;;;;;;;51.53;24.43;;;;;;;9.94;76.99;101924.27;126154;1099;112169;-81
2021/11/15 07:40:39;;;;;;;44.37;22.93;;;;;;;10.00;77.62;101919.41;126228;1099;103922;-80
2021/11/15 07:43:13;;;;;;;46.33;24.07;;;;;;;10.07;76.79;101925.11;126099;1099;105281;-81
2021/11/15 07:45:45;;;;;;;47.13;22.50;;;;;;;10.14;76.90;101925.48;126015;1099;103916;-79
2021/11/15 07:48:20;;;;;;;51.03;23.30;;;;;;;10.21;76.84;101930.30;126087;1099;104014;-80
2021/11/15 07:50:54;;;;;;;46.90;24.20;;;;;;;10.30;77.12;101932.55;125989;1099;103938;-80
2021/11/15 07:53:29;;;;;;;42.13;22.77;;;;;;;10.39;76.71;101936.69;125889;1099;104027;-81
2021/11/15 07:56:01;;;;;;;43.17;21.97;;;;;;;10.44;76.78;101939.58;125761;1099;103935;-80
2021/11/15 07:58:36;;;;;;;40.93;21.57;;;;;;;10.49;76.77;101943.38;125812;1099;107152;-80
2021/11/15 08:01:12;;;;;;;49.60;24.37;;;;;;;10.52;76.09;101940.03;125957;1099;104014;-78
2021/11/15 08:03:45;;;;;;;46.37;22.47;;;;;;;10.58;76.20;101946.54;126092;1099;104089;-78
2021/11/15 08:06:17;;;;;;;49.00;23.87;;;;;;;10.66;76.26;101946.98;126037;1099;104028;-78
2021/11/15 08:08:53;;;;;;;49.53;24.07;;;;;;;10.70;76.11;101948.95;126091;1099;118591;-79
2021/11/15 08:11:32;;;;;;;43.90;24.20;;;;;;;10.75;76.11;101951.84;126226;1099;104417;-79
2021/11/15 08:14:07;;;;;;;46.67;23.27;;;;;;;10.76;75.57;101954.56;126301;1099;103916;-81
2021/11/15 08:16:39;;;;;;;42.20;19.80;;;;;;;10.80;75.80;101945.17;126086;1099;104050;-80
2021/11/15 08:19:13;;;;;;;43.13;21.80;;;;;;;10.80;75.34;101950.42;126178;1099;104047;-80
2021/11/15 08:21:51;;;;;;;41.73;21.03;;;;;;;10.88;75.28;101948.23;126126;1099;103929;-82
2021/11/15 08:25:07;;;;;;;45.67;20.73;;;;;;;10.86;74.69;101944.59;126114;1099;103925;-80
2021/11/15 08:27:41;;;;;;;33.87;17.17;;;;;;;10.97;74.38;101943.52;126169;1099;101542;-79
2021/11/15 08:30:15;;;;;;;32.03;15.87;;;;;;;10.96;73.79;101947.84;126041;1099;103944;-80
2021/11/15 08:33:11;;;;;;;33.67;16.47;;;;;;;10.97;73.72;101940.89;126224;1097;103935;-79
2021/11/15 08:35:52;;;;;;;34.23;16.20;;;;;;;11.06;73.48;101951.88;126142;1099;104145;-78
2021/11/15 08:38:50;;;;;;;36.90;17.03;;;;;;;11.09;73.50;101954.69;126215;1099;105215;-81
2021/11/15 08:41:32;;;;;;;31.47;17.13;;;;;;;11.14;73.47;101954.95;126120;1099;104966;-80
2021/11/15 08:44:10;;;;;;;30.90;16.80;;;;;;;11.19;73.23;101961.39;126137;1099;103983;-79
2021/11/15 08:46:45;;;;;;;33.90;17.00;;;;;;;11.21;72.65;101962.37;126229;1099;104388;-82
2021/11/15 08:49:21;;;;;;;33.17;16.67;;;;;;;11.19;71.61;101965.72;126214;1099;104015;-81
2021/11/15 08:52:04;;;;;;;31.73;16.17;;;;;;;11.20;72.23;101967.54;126090;1099;103916;-81
2021/11/15 08:54:38;;;;;;;34.33;16.47;;;;;;;11.24;71.88;101964.28;126276;1097;103948;-80
2021/11/15 08:57:28;;;;;;;31.73;15.67;;;;;;;11.29;71.64;101965.43;126199;1099;103926;-79
2021/11/15 09:00:01;;;;;;;30.57;15.53;;;;;;;11.20;71.08;101962.28;125963;1099;103961;-78
2021/11/15 09:02:36;;;;;;;33.47;16.27;;;;;;;11.14;69.63;101963.76;126186;1099;103973;-79
2021/11/15 09:05:34;;;;;;;34.27;16.83;;;;;;;11.08;70.02;101959.85;126163;1099;104098;-80
2021/11/15 09:08:13;;;;;;;33.90;17.10;;;;;;;11.01;69.07;101953.36;126032;1099;105218;-79
2021/11/15 09:10:53;;;;;;;36.60;17.50;;;;;;;10.97;68.95;101952.28;126146;1099;103919;-79
2021/11/15 09:13:26;;;;;;;32.73;17.40;;;;;;;11.05;69.59;101955.35;126137;1099;104394;-83
2021/11/15 09:16:16;;;;;;;35.20;16.27;;;;;;;11.19;70.29;101953.51;126172;1099;104101;-80
2021/11/15 09:18:56;;;;;;;34.17;16.77;;;;;;;11.35;69.92;101955.27;126177;1099;104136;-79
2021/11/15 09:21:30;;;;;;;31.73;16.57;;;;;;;11.44;69.23;101955.78;126029;1099;103948;-79
2021/11/15 09:24:07;;;;;;;36.17;17.33;;;;;;;11.48;68.98;101964.73;126019;1099;104009;-80
2021/11/15 09:26:39;;;;;;;33.20;16.67;;;;;;;11.51;69.04;101957.01;126162;1099;104040;-80
2021/11/15 09:29:17;;;;;;;33.87;16.77;;;;;;;11.53;69.35;101955.39;126237;1097;103958;-81
2021/11/15 09:31:55;;;;;;;31.47;16.57;;;;;;;11.59;69.14;101954.80;125986;1098;110278;-81
2021/11/15 09:34:29;;;;;;;32.23;16.63;;;;;;;11.63;69.23;101957.69;126209;1099;103919;-81
2021/11/15 09:37:03;;;;;;;30.13;15.40;;;;;;;11.69;68.36;101954.50;126268;1099;103983;-81
2021/11/15 09:39:36;;;;;;;36.30;17.57;;;;;;;11.51;66.12;101959.64;126242;1099;103996;-80
2021/11/15 09:42:11;;;;;;;30.87;16.93;;;;;;;11.35;66.60;101952.63;126163;1099;118390;-80
2021/11/15 09:44:47;;;;;;;32.43;16.73;;;;;;;11.33;67.00;101959.54;126144;1098;104095;-80
2021/11/15 09:47:21;;;;;;;34.37;17.37;;;;;;;11.37;67.54;101953.61;126322;1099;104012;-80
2021/11/15 09:49:54;;;;;;;31.40;16.07;;;;;;;11.39;64.31;101957.25;126257;1099;103951;-80
2021/11/15 09:52:26;;;;;;;32.45;16.15;;;;;;;11.43;67.64;101953.06;126237;1099;103925;-79
2021/11/15 09:55:01;;;;;;;33.47;16.63;;;;;;;11.33;64.44;101949.92;126247;1099;103909;-79
2021/11/15 09:57:34;;;;;;;47.67;25.23;;;;;;;11.37;66.48;101952.72;126135;1099;103929;-80
2021/11/15 10:00:12;;;;;;;32.95;17.40;;;;;;;11.47;66.64;101947.17;126023;1099;103979;-79
2021/11/15 10:02:50;;;;;;;37.93;18.83;;;;;;;11.61;66.88;101955.78;126235;1098;110680;-79
2021/11/15 10:05:27;;;;;;;33.57;16.37;;;;;;;11.79;66.70;101956.78;126160;1099;104098;-79
2021/11/15 10:08:09;;;;;;;33.43;16.83;;;;;;;11.90;66.10;101953.84;125288;1099;103960;-80
2021/11/15 10:10:45;;;;;;;35.93;17.70;;;;;;;11.90;65.66;101940.69;125120;1103;104108;-80
2021/11/15 10:13:27;;;;;;;35.40;16.77;;;;;;;11.82;63.76;101958.69;125110;1099;104169;-81
2021/11/15 10:16:04;;;;;;;36.50;17.80;;;;;;;11.74;65.01;101947.75;125095;1098;103944;-78
2021/11/15 10:18:45;;;;;;;53.37;25.73;;;;;;;11.75;64.97;101948.64;125142;1099;103970;-79
2021/11/15 10:21:22;;;;;;;30.17;15.80;;;;;;;11.84;64.54;101952.70;125156;1099;105407;-79
2021/11/15 10:24:01;;;;;;;32.57;15.27;;;;;;;11.93;65.10;101927.73;125190;1100;104108;-77
2021/11/15 10:26:40;;;;;;;31.20;15.47;;;;;;;11.98;64.97;101955.18;125252;1099;104040;-79
2021/11/15 10:29:21;;;;;;;38.80;16.50;;;;;;;12.02;65.08;101946.64;125231;1099;103947;-80
2021/11/15 10:31:59;;;;;;;33.18;16.95;;;;;;;12.02;64.08;101954.53;125213;1099;104095;-79
2021/11/15 10:37:54;;;;;;;28.77;15.23;;;;;;;11.93;63.54;101954.94;125106;1099;104120;-81
2021/11/15 10:40:33;;;;;;;30.30;15.13;;;;;;;11.92;63.22;101963.67;125897;1099;103894;-80
2021/11/15 10:43:11;;;;;;;28.93;14.93;;;;;;;11.86;62.85;101963.30;126144;1099;103941;-82
2021/11/15 10:45:48;;;;;;;30.20;15.90;;;;;;;11.92;63.99;101962.70;126275;1099;103919;-81
2021/11/15 10:48:45;;;;;;;31.13;15.40;;;;;;;11.99;63.69;101963.16;126315;1099;104060;-82
2021/11/15 10:51:49;;;;;;;28.73;14.37;;;;;;;11.93;61.39;101975.08;126048;1099;103980;-82
2021/11/15 10:54:47;;;;;;;35.60;17.03;;;;;;;11.75;62.16;101974.94;126217;1097;104014;-80
2021/11/15 10:57:36;;;;;;;33.13;16.60;;;;;;;11.69;62.01;101972.91;126231;1099;103957;-81
2021/11/15 11:00:26;;;;;;;31.23;15.67;;;;;;;11.72;62.42;101972.14;126188;1099;103919;-81
2021/11/15 11:03:13;;;;;;;31.23;14.90;;;;;;;11.77;61.85;101973.33;126230;1099;103997;-83
2021/11/15 11:05:49;;;;;;;37.97;18.43;;;;;;;11.77;62.22;101966.33;125910;1099;103970;-82
2021/11/15 11:08:33;;;;;;;33.27;16.50;;;;;;;11.80;61.90;101973.48;126059;1098;103948;-83
2021/11/15 11:11:32;;;;;;;33.50;15.37;;;;;;;11.76;60.25;101971.50;126199;1099;104008;-81
2021/11/15 11:14:19;;;;;;;33.13;15.97;;;;;;;11.72;62.01;101978.33;125853;1099;104038;-81
2021/11/15 11:17:06;;;;;;;39.50;19.17;;;;;;;11.63;61.94;101972.56;125749;1099;102620;-81
2021/11/15 11:20:28;;;;;;;34.60;17.03;;;;;;;11.49;61.23;101977.06;125880;1098;104099;-82
2021/11/15 11:23:34;;;;;;;31.53;16.87;;;;;;;11.31;61.00;101977.85;125081;1102;105409;-81
2021/11/15 11:26:18;;;;;;;36.90;18.13;;;;;;;11.30;61.50;101976.03;125081;1102;104140;-79
2021/11/15 11:28:54;;;;;;;38.20;18.10;;;;;;;11.28;61.65;101975.05;125191;1101;104452;-79
2021/11/15 11:31:32;;;;;;;33.33;17.60;;;;;;;11.24;62.03;101973.05;125119;1101;103944;-81
2021/11/15 11:34:35;;;;;;;32.60;16.00;;;;;;;11.33;62.26;101970.05;125080;1102;104166;-80
2021/11/15 11:37:11;;;;;;;32.67;16.90;;;;;;;11.32;61.52;101976.11;125089;1102;103974;-79
2021/11/15 11:39:48;;;;;;;35.00;17.43;;;;;;;11.33;61.97;101973.58;125186;1102;104024;-80